Time;durP1;ratioP1;P1;durP2;ratioP2;P2;SDS_P1;SDS_P2;PMS_P1;PMS_P2;Temp;Humidity;BMP_temperature;BMP_pressure;BME280_temperature;BME280_humidity;BME280_pressure;Samples;Min_cycle;Max_cycle;Signal;HPM_P1;HPM_P2
2021/07/21 00:03:20;;;;;;;;;17.50;17.00;;;;;25.96;100.00;101752.09;4958662;28;45618;-64
2021/07/21 00:05:45;;;;;;;;;15.00;14.00;;;;;25.89;100.00;101740.91;4959136;28;45325;-64
2021/07/21 00:08:11;;;;;;;;;17.75;16.00;;;;;25.89;100.00;101754.31;4959097;28;45304;-64
2021/07/21 00:10:37;;;;;;;;;16.75;14.00;;;;;25.86;100.00;101756.31;4958643;28;46312;-64
2021/07/21 00:16:05;;;;;;;;;14.75;13.75;;;;;25.82;100.00;101752.97;4958698;28;45368;-64
2021/07/21 00:18:35;;;;;;;;;13.00;11.75;;;;;25.75;100.00;101746.25;4958899;28;45293;-64
2021/07/21 00:21:00;;;;;;;;;16.50;13.25;;;;;25.76;100.00;101747.13;4958863;28;46492;-64
2021/07/21 00:23:26;;;;;;;;;14.50;12.50;;;;;25.72;100.00;101749.13;4958928;28;45492;-64
2021/07/21 00:25:52;;;;;;;;;17.00;13.50;;;;;25.72;100.00;101754.47;4958677;28;45396;-65
2021/07/21 00:28:20;;;;;;;;;16.00;15.50;;;;;25.69;100.00;101752.00;4958583;28;45450;-64
2021/07/21 00:30:46;;;;;;;;;15.25;13.75;;;;;25.65;100.00;101748.63;4958705;28;45359;-65
2021/07/21 00:33:11;;;;;;;;;13.00;12.50;;;;;25.65;100.00;101756.66;4958255;28;45340;-64
2021/07/21 00:35:37;;;;;;;;;10.50;10.25;;;;;25.62;100.00;101755.97;4940996;28;45421;-65
2021/07/21 00:38:02;;;;;;;;;16.50;15.50;;;;;25.59;100.00;101757.03;4958903;28;45306;-65
2021/07/21 00:40:28;;;;;;;;;16.75;15.00;;;;;25.56;100.00;101762.53;4958216;28;46245;-65
2021/07/21 00:42:53;;;;;;;;;15.50;13.00;;;;;25.48;100.00;101747.91;4958088;28;45431;-65
2021/07/21 00:48:41;;;;;;;;;15.25;13.50;;;;;25.43;100.00;101747.34;4958446;28;45265;-65
2021/07/21 00:51:06;;;;;;;;;17.25;16.25;;;;;25.45;100.00;101748.13;4958225;28;46490;-66
2021/07/21 00:53:33;;;;;;;;;16.25;14.25;;;;;25.42;100.00;101750.97;4958238;28;45277;-65
2021/07/21 00:55:59;;;;;;;;;18.75;13.75;;;;;25.34;100.00;101749.59;4958084;28;45397;-65
2021/07/21 00:58:25;;;;;;;;;18.00;15.50;;;;;25.34;100.00;101757.63;4958123;28;45572;-65
2021/07/21 01:00:51;;;;;;;;;15.50;14.50;;;;;25.33;100.00;101763.94;4957850;28;46362;-66
2021/07/21 01:03:17;;;;;;;;;14.75;13.00;;;;;25.30;100.00;101761.44;4957921;28;45319;-65
2021/07/21 01:05:43;;;;;;;;;10.00;9.25;;;;;25.15;100.00;101745.47;4958163;28;45377;-65
2021/07/21 01:08:12;;;;;;;;;19.00;17.50;;;;;25.17;100.00;101754.25;4958166;28;45388;-65
2021/07/21 01:10:43;;;;;;;;;15.50;14.50;;;;;25.17;100.00;101757.78;4957613;28;46258;-64
2021/07/21 01:20:16;;;;;;;;;16.25;15.00;;;;;25.12;100.00;101764.34;4957995;28;45250;-65
2021/07/21 01:22:45;;;;;;;;;17.50;15.50;;;;;25.07;100.00;101761.06;4957495;28;47424;-65
2021/07/21 01:25:23;;;;;;;;;17.75;14.25;;;;;25.06;100.00;101764.69;4957662;28;45243;-65
2021/07/21 01:27:53;;;;;;;;;13.50;12.25;;;;;25.04;100.00;101759.44;4957963;28;45367;-65
2021/07/21 01:30:28;;;;;;;;;14.25;13.75;;;;;25.00;100.00;101761.44;4957751;28;45397;-65
2021/07/21 01:33:15;;;;;;;;;14.75;13.50;;;;;24.94;100.00;101752.91;4957763;28;45499;-65
2021/07/21 01:35:47;;;;;;;;;16.50;15.00;;;;;24.94;100.00;101755.56;4957554;28;45327;-65
2021/07/21 01:38:21;;;;;;;;;15.00;13.50;;;;;24.91;100.00;101750.41;4957888;28;45408;-65
2021/07/21 01:41:06;;;;;;;;;18.75;15.75;;;;;24.86;100.00;101749.78;4957570;28;45436;-65
2021/07/21 01:46:57;;;;;;;;;15.50;15.00;;;;;24.81;100.00;101758.09;4957344;28;45518;-64
2021/07/21 01:49:27;;;;;;;;;16.50;16.50;;;;;24.80;100.00;101755.50;4957728;28;45491;-66
2021/07/21 01:51:55;;;;;;;;;14.25;13.50;;;;;24.78;100.00;101763.59;4957867;28;45314;-65
2021/07/21 01:54:21;;;;;;;;;16.50;15.50;;;;;24.75;100.00;101763.78;4957588;28;46438;-64
2021/07/21 01:56:48;;;;;;;;;17.25;16.25;;;;;24.73;100.00;101768.34;4957871;28;45337;-63
2021/07/21 02:02:36;;;;;;;;;19.25;15.00;;;;;24.62;100.00;101762.75;4960834;28;45534;-64
2021/07/21 02:05:03;;;;;;;;;17.50;16.25;;;;;24.64;100.00;101777.75;4960910;28;45551;-64
2021/07/21 02:07:30;;;;;;;;;18.25;15.75;;;;;24.59;100.00;101769.13;4960562;28;45336;-64
2021/07/21 02:09:56;;;;;;;;;15.25;14.00;;;;;24.55;100.00;101770.25;4960870;28;45282;-64
2021/07/21 02:12:21;;;;;;;;;15.50;15.00;;;;;24.55;100.00;101780.94;4961001;28;45273;-63
2021/07/21 02:18:09;;;;;;;;;19.00;16.75;;;;;24.47;100.00;101764.50;4960542;28;45392;-63
2021/07/21 02:20:35;;;;;;;;;17.25;15.50;;;;;24.48;100.00;101776.03;4960560;28;45395;-64
2021/07/21 02:23:02;;;;;;;;;14.25;12.25;;;;;24.41;100.00;101765.69;4961024;28;45315;-63
2021/07/21 02:25:28;;;;;;;;;18.25;15.25;;;;;24.42;100.00;101769.22;4960446;28;45349;-65
2021/07/21 02:27:54;;;;;;;;;20.50;15.00;;;;;24.43;100.00;101777.13;4960333;28;45178;-64
2021/07/21 02:33:49;;;;;;;;;17.25;14.50;;;;;24.39;100.00;101772.91;4960605;28;45437;-64
2021/07/21 02:36:16;;;;;;;;;22.25;19.00;;;;;24.33;100.00;101767.06;4960550;28;45671;-64
2021/07/21 02:38:41;;;;;;;;;20.00;18.00;;;;;24.33;100.00;101772.41;4959737;28;45325;-65
2021/07/21 02:41:07;;;;;;;;;16.75;16.25;;;;;24.33;100.00;101772.41;4960113;28;45353;-65
2021/07/21 02:43:34;;;;;;;;;18.50;15.75;;;;;24.27;100.00;101768.25;4960497;28;45341;-64
2021/07/21 02:49:21;;;;;;;;;15.75;15.50;;;;;24.19;100.00;101770.44;4959983;28;45325;-65
2021/07/21 02:51:52;;;;;;;;;18.50;15.50;;;;;24.23;100.00;101776.50;4942642;28;45381;-65
2021/07/21 02:54:46;;;;;;;;;16.00;15.25;;;;;24.20;100.00;101776.66;4960175;28;45468;-64
2021/07/21 02:57:20;;;;;;;;;16.25;13.75;;;;;24.12;100.00;101775.25;4880933;29;46683;-65
2021/07/21 02:59:50;;;;;;;;;17.25;15.00;;;;;24.13;100.00;101785.00;4881269;29;45489;-65
2021/07/21 03:02:21;;;;;;;;;20.75;19.00;;;;;24.13;100.00;101787.66;4881359;29;45454;-65
2021/07/21 03:04:48;;;;;;;;;18.00;15.50;;;;;24.12;100.00;101785.06;4881557;29;45424;-64
2021/07/21 03:07:15;;;;;;;;;17.25;13.25;;;;;24.09;100.00;101788.78;4880926;29;45674;-65
2021/07/21 03:09:42;;;;;;;;;45.75;34.75;;;;;24.07;100.00;101796.00;4880075;29;45604;-65
2021/07/21 03:12:13;;;;;;;;;24.75;22.75;;;;;24.06;100.00;101791.63;4881328;29;45380;-64
2021/07/21 03:14:41;;;;;;;;;17.25;15.50;;;;;24.05;100.00;101791.69;4881373;29;45531;-64
2021/07/21 03:17:08;;;;;;;;;21.00;19.00;;;;;24.01;100.00;101787.47;4880665;29;46358;-65
2021/07/21 03:19:38;;;;;;;;;23.25;17.25;;;;;23.96;100.00;101790.38;4880648;29;45498;-64
2021/07/21 03:22:04;;;;;;;;;19.50;18.00;;;;;23.94;100.00;101799.41;4881087;29;45593;-65
2021/07/21 03:24:31;;;;;;;;;16.75;16.50;;;;;23.92;100.00;101788.81;4881354;29;45515;-64
2021/07/21 03:26:58;;;;;;;;;23.75;17.75;;;;;23.96;100.00;101794.84;4880818;29;46335;-64
2021/07/21 03:29:28;;;;;;;;;17.00;15.50;;;;;23.91;100.00;101792.44;4864689;29;45572;-64
2021/07/21 03:31:53;;;;;;;;;19.75;17.00;;;;;23.84;100.00;101793.72;4880698;29;45426;-64
2021/07/21 03:34:22;;;;;;;;;20.50;16.00;;;;;23.88;100.00;101803.25;4924436;28;45438;-64
2021/07/21 03:36:50;;;;;;;;;22.75;18.50;;;;;23.82;100.00;101795.59;4959112;28;46285;-64
2021/07/21 03:39:16;;;;;;;;;16.00;15.00;;;;;23.86;100.00;101796.28;4959081;28;45486;-64
2021/07/21 03:41:43;;;;;;;;;15.00;14.75;;;;;23.82;100.00;101792.94;4959635;28;45409;-64
2021/07/21 03:44:11;;;;;;;;;22.00;18.00;;;;;23.80;100.00;101794.81;4941992;28;45513;-65
2021/07/21 03:49:59;;;;;;;;;15.75;15.75;;;;;23.77;100.00;101797.66;4959088;28;45657;-64
2021/07/21 03:52:25;;;;;;;;;19.50;17.75;;;;;23.75;100.00;101794.16;4959162;28;45404;-63
2021/07/21 03:54:52;;;;;;;;;16.75;16.00;;;;;23.73;100.00;101796.06;4959286;28;45318;-64
2021/07/21 03:57:20;;;;;;;;;21.75;19.50;;;;;23.72;100.00;101799.66;4958799;28;46404;-64
2021/07/21 03:59:46;;;;;;;;;19.00;16.75;;;;;23.71;100.00;101803.28;4959141;28;45608;-64
2021/07/21 04:02:12;;;;;;;;;24.00;19.50;;;;;23.63;100.00;101801.03;4959220;28;45377;-65
2021/07/21 04:04:45;;;;;;;;;18.50;16.75;;;;;23.67;100.00;101804.38;4959360;28;45421;-64
2021/07/21 04:07:13;;;;;;;;;19.00;17.00;;;;;23.59;100.00;101798.59;4958871;28;45417;-65
2021/07/21 04:09:40;;;;;;;;;20.25;19.00;;;;;23.61;100.00;101794.06;4958691;28;45340;-64
2021/07/21 04:12:06;;;;;;;;;21.00;17.75;;;;;23.53;100.00;101789.91;4958980;28;45350;-65
2021/07/21 04:14:33;;;;;;;;;21.75;19.75;;;;;23.59;100.00;101798.59;4958980;28;45326;-65
2021/07/21 04:16:59;;;;;;;;;19.25;16.00;;;;;23.58;100.00;101804.88;4958870;28;45448;-63
2021/07/21 04:19:25;;;;;;;;;21.75;17.25;;;;;23.53;100.00;101792.59;4958912;28;45332;-65
2021/07/21 04:21:51;;;;;;;;;18.50;16.75;;;;;;;;4959010;28;45404;-64
2021/07/21 04:24:20;;;;;;;;;21.25;18.25;;;;;23.53;100.00;101808.59;4958807;28;45345;-64
2021/07/21 04:26:47;;;;;;;;;20.00;17.00;;;;;23.50;100.00;101800.75;4958711;28;45720;-64
2021/07/21 04:29:20;;;;;;;;;21.50;19.00;;;;;23.53;100.00;101807.72;4958248;28;45322;-65
2021/07/21 04:35:10;;;;;;;;;20.75;19.50;;;;;23.53;100.00;101818.38;4958500;28;45316;-65
2021/07/21 04:37:39;;;;;;;;;18.00;17.75;;;;;23.49;100.00;101814.16;4958430;28;45294;-69
2021/07/21 04:40:07;;;;;;;;;21.00;19.50;;;;;23.52;100.00;101814.00;4958369;28;45683;-72
2021/07/21 04:42:32;;;;;;;;;23.25;20.00;;;;;23.51;100.00;101813.13;4958741;28;45344;-72
2021/07/21 04:44:58;;;;;;;;;24.25;19.75;;;;;23.57;100.00;101822.69;4958539;28;45456;-72
2021/07/21 04:47:24;;;;;;;;;23.00;21.25;;;;;23.54;100.00;101814.81;4957910;28;45987;-71
2021/07/21 04:49:51;;;;;;;;;23.50;20.25;;;;;23.67;100.00;101839.06;4958446;28;45637;-71
2021/07/21 04:52:20;;;;;;;;;22.25;17.50;;;;;23.69;100.00;101839.84;4958471;28;45306;-72
2021/07/21 04:54:45;;;;;;;;;24.00;21.00;;;;;23.71;100.00;101836.16;4958762;28;45620;-71
2021/07/21 04:57:11;;;;;;;;;23.25;20.00;;;;;23.59;100.00;101801.28;4958240;28;45890;-70
2021/07/21 04:59:38;;;;;;;;;21.00;18.50;;;;;23.77;100.00;101837.66;4958111;28;45495;-73
2021/07/21 05:05:25;;;;;;;;;24.25;19.75;;;;;23.76;100.00;101835.91;4958066;28;45305;-72
2021/07/21 05:07:50;;;;;;;;;23.75;20.50;;;;;23.74;100.00;101838.66;4957632;28;46333;-69
2021/07/21 05:10:16;;;;;;;;;24.25;20.25;;;;;23.78;100.00;101847.38;4958054;28;45509;-68
2021/07/21 05:12:44;;;;;;;;;26.25;21.50;;;;;23.80;100.00;101846.34;4957916;28;45428;-67
2021/07/21 05:15:11;;;;;;;;;19.25;19.00;;;;;23.79;100.00;101849.97;4957984;28;45440;-67
2021/07/21 05:17:37;;;;;;;;;21.50;20.50;;;;;23.80;100.00;101848.16;4957464;28;47290;-67
2021/07/21 05:20:04;;;;;;;;;22.50;19.25;;;;;23.85;100.00;101855.91;4957991;28;45198;-68
2021/07/21 05:22:30;;;;;;;;;22.00;21.75;;;;;23.85;100.00;101855.91;4957856;28;45197;-66
2021/07/21 05:24:55;;;;;;;;;21.25;18.75;;;;;23.87;100.00;101849.56;4958039;28;45603;-66
2021/07/21 05:27:20;;;;;;;;;24.25;19.75;;;;;23.83;100.00;101850.66;4957413;28;47022;-67
2021/07/21 05:29:46;;;;;;;;;25.50;21.50;;;;;23.85;100.00;101859.44;4957332;28;45424;-67
2021/07/21 05:35:32;;;;;;;;;23.00;20.25;;;;;23.93;100.00;101865.22;4957804;28;45315;-69
2021/07/21 05:37:58;;;;;;;;;25.00;23.00;;;;;23.92;100.00;101863.50;4957160;28;46651;-67
2021/07/21 05:40:23;;;;;;;;;27.75;21.25;;;;;23.99;100.00;101869.38;4957179;28;45358;-67
2021/07/21 05:42:49;;;;;;;;;24.50;23.25;;;;;24.02;100.00;101878.13;4940242;28;45318;-68
2021/07/21 05:45:15;;;;;;;;;28.75;27.25;;;;;24.06;100.00;101877.00;4957594;28;45399;-67
2021/07/21 05:47:40;;;;;;;;;21.25;19.50;;;;;24.08;100.00;101871.59;4957359;28;45471;-68
2021/07/21 05:50:07;;;;;;;;;25.00;22.00;;;;;24.05;100.00;101869.94;4957593;28;45436;-65
2021/07/21 05:52:32;;;;;;;;;27.75;24.50;;;;;24.04;100.00;101873.56;4957342;28;45515;-66
2021/07/21 05:54:58;;;;;;;;;25.25;23.00;;;;;24.02;100.00;101875.44;4957715;28;45354;-65
2021/07/21 05:57:25;;;;;;;;;24.75;21.25;;;;;24.08;100.00;101887.59;4957206;28;45677;-66
2021/07/21 05:59:51;;;;;;;;;23.00;21.50;;;;;24.07;100.00;101888.53;4957418;28;45261;-66
2021/07/21 06:05:38;;;;;;;;;25.50;21.00;;;;;24.13;100.00;101883.72;4957402;28;45362;-66
2021/07/21 06:08:05;;;;;;;;;25.50;21.25;;;;;24.17;100.00;101883.56;4957102;28;46034;-66
2021/07/21 06:10:30;;;;;;;;;28.00;21.25;;;;;24.13;100.00;101867.72;4957056;28;45716;-66
2021/07/21 06:12:56;;;;;;;;;18.50;18.00;;;;;24.32;100.00;101890.81;4957122;28;45329;-66
2021/07/21 06:15:26;;;;;;;;;21.00;19.50;;;;;24.36;100.00;101890.56;4957166;28;45373;-67
2021/07/21 06:17:52;;;;;;;;;21.75;20.75;;;;;24.43;100.00;101897.28;4957037;28;46213;-66
2021/07/21 06:20:17;;;;;;;;;27.50;21.50;;;;;24.42;100.00;101895.56;4956888;28;45496;-67
2021/07/21 06:22:43;;;;;;;;;24.00;22.00;;;;;24.52;100.00;101893.25;4956887;28;45479;-66
2021/07/21 06:25:09;;;;;;;;;24.50;22.00;;;;;24.59;100.00;101902.66;4957454;28;45496;-67
2021/07/21 06:27:35;;;;;;;;;23.00;18.75;;;;;24.65;100.00;101914.81;4956702;28;47054;-67
2021/07/21 06:30:06;;;;;;;;;22.25;20.50;;;;;24.62;100.00;101902.50;4956936;28;45326;-67
2021/07/21 06:35:53;;;;;;;;;28.50;23.75;;;;;24.83;100.00;101926.31;4957116;28;45684;-65
2021/07/21 06:38:19;;;;;;;;;24.00;22.00;;;;;24.90;100.00;101922.38;4956906;28;45383;-66
2021/07/21 06:40:44;;;;;;;;;22.00;20.00;;;;;24.95;100.00;101925.63;4956474;28;45364;-66
2021/07/21 06:43:10;;;;;;;;;24.00;20.25;;;;;25.00;100.00;101927.13;4956603;28;45424;-67
2021/07/21 06:45:35;;;;;;;;;27.00;20.00;;;;;25.05;100.00;101916.19;4959957;28;45221;-66
2021/07/21 06:48:01;;;;;;;;;24.75;21.00;;;;;25.12;100.00;101924.69;4959813;28;47281;-68
2021/07/21 06:50:27;;;;;;;;;25.75;22.75;;;;;25.17;100.00;101923.53;4960068;28;45369;-66
2021/07/21 06:52:53;;;;;;;;;23.25;19.75;;;;;25.23;100.00;101927.66;4959815;28;45568;-66
2021/07/21 06:55:18;;;;;;;;;23.00;21.75;;;;;25.22;100.00;101921.44;4960129;28;45454;-65
2021/07/21 06:57:44;;;;;;;;;27.50;22.50;;;;;25.30;100.00;101932.56;4959565;28;47273;-67
2021/07/21 07:00:10;;;;;;;;;24.75;23.00;;;;;25.40;100.00;101938.25;4959880;28;45467;-66
2021/07/21 07:06:23;;;;;;;;;28.75;22.75;;;;;25.48;100.00;101940.47;4959820;28;45257;-67
2021/07/21 07:08:48;;;;;;;;;25.50;22.00;;;;;25.53;100.00;101933.91;4959488;28;47136;-67
2021/07/21 07:11:14;;;;;;;;;25.00;22.75;;;;;25.60;100.00;101940.63;4959591;28;45425;-66
2021/07/21 07:13:39;;;;;;;;;22.50;20.75;;;;;25.67;100.00;101941.16;4959719;28;45460;-67
2021/07/21 07:16:05;;;;;;;;;25.25;23.00;;;;;25.68;100.00;101932.19;4959916;28;45242;-66
2021/07/21 07:18:35;;;;;;;;;28.25;23.00;;;;;25.74;100.00;101929.16;4959561;28;45518;-66
2021/07/21 07:21:00;;;;;;;;;27.00;23.50;;;;;25.80;100.00;101930.59;4959521;28;45968;-66
2021/07/21 07:23:26;;;;;;;;;25.25;21.75;;;;;25.84;100.00;101934.84;4959288;28;45584;-68
2021/07/21 07:25:51;;;;;;;;;31.25;24.50;;;;;25.84;100.00;101935.69;4959571;28;45253;-67
2021/07/21 07:28:16;;;;;;;;;22.25;19.75;;;;;25.94;100.00;101938.66;4959102;28;46958;-67
2021/07/21 07:30:42;;;;;;;;;24.00;24.00;;;;;26.00;100.00;101940.13;4959139;28;45316;-67
2021/07/21 07:33:07;;;;;;;;;24.25;23.25;;;;;26.06;100.00;101945.13;4959759;28;45626;-67
2021/07/21 07:35:34;;;;;;;;;21.25;20.50;;;;;26.06;100.00;101937.09;4959721;28;45286;-67
2021/07/21 07:38:00;;;;;;;;;25.00;22.75;;;;;26.11;100.00;101935.00;4959185;28;46482;-67
2021/07/21 07:40:25;;;;;;;;;29.00;23.50;;;;;26.18;100.00;101942.53;4958902;28;45822;-66
2021/07/21 07:42:51;;;;;;;;;28.25;22.25;;;;;26.30;100.00;101945.44;4959477;28;45539;-66
2021/07/21 07:45:17;;;;;;;;;24.75;24.00;;;;;26.33;100.00;101946.13;4959383;28;45427;-66
2021/07/21 07:51:03;;;;;;;;;29.50;21.75;;;;;26.49;100.00;101943.41;4958867;28;45585;-67
2021/07/21 07:53:29;;;;;;;;;22.50;20.75;;;;;26.54;100.00;101942.16;4959248;28;45261;-69
2021/07/21 07:55:54;;;;;;;;;27.00;23.25;;;;;26.59;100.00;101938.31;4958717;28;45502;-67
2021/07/21 07:58:20;;;;;;;;;21.00;20.00;;;;;26.65;100.00;101945.97;4958585;28;46420;-67
2021/07/21 08:00:46;;;;;;;;;25.75;22.25;;;;;26.69;100.00;101932.28;4958736;28;45382;-67
2021/07/21 08:03:11;;;;;;;;;22.50;21.00;;;;;26.76;100.00;101936.31;4958981;28;45618;-66
2021/07/21 08:05:38;;;;;;;;;26.00;22.00;;;;;26.79;100.00;101925.38;4959062;28;45546;-68
2021/07/21 08:08:04;;;;;;;;;22.50;19.75;;;;;26.92;100.00;101941.53;4958715;28;47244;-67
2021/07/21 08:10:30;;;;;;;;;24.75;21.50;;;;;26.96;100.00;101940.41;4959021;28;45457;-66
2021/07/21 08:12:56;;;;;;;;;27.75;22.75;;;;;27.02;100.00;101942.72;4959138;28;45372;-67
2021/07/21 08:15:22;;;;;;;;;31.00;23.25;;;;;27.02;100.00;101923.94;4959315;28;45390;-66
2021/07/21 08:21:09;;;;;;;;;27.00;22.75;;;;;27.20;100.00;101940.69;4958487;28;45555;-67
2021/07/21 08:23:34;;;;;;;;;24.25;23.00;;;;;27.30;100.00;101938.25;4958626;28;45362;-67
2021/07/21 08:26:00;;;;;;;;;22.50;21.00;;;;;27.37;100.00;101940.41;4958485;28;45401;-66
2021/07/21 08:28:26;;;;;;;;;22.75;20.00;;;;;27.45;100.00;101939.91;4958294;28;47457;-66
2021/07/21 08:30:52;;;;;;;;;22.50;20.25;;;;;27.52;100.00;101938.53;4958371;28;45454;-68
2021/07/21 08:33:17;;;;;;;;;26.00;24.00;;;;;27.62;100.00;101933.44;4958114;28;45337;-66
2021/07/21 08:35:44;;;;;;;;;25.00;22.50;;;;;27.77;100.00;101944.03;4958611;28;45318;-66
2021/07/21 08:38:11;;;;;;;;;19.50;19.25;;;;;27.93;100.00;101941.16;4958195;28;46488;-67
2021/07/21 08:40:39;;;;;;;;;22.00;20.75;;;;;28.06;100.00;101942.06;4957889;28;45653;-67
2021/07/21 08:43:07;;;;;;;;;19.00;18.50;;;;;28.26;100.00;101951.44;4958069;28;45466;-67
2021/07/21 08:45:32;;;;;;;;;23.75;18.25;;;;;28.41;100.00;101943.28;4958370;28;45380;-67
2021/07/21 08:51:22;;;;;;;;;27.75;21.50;;;;;28.75;100.00;101937.25;4957869;28;45401;-67
2021/07/21 08:53:50;;;;;;;;;21.75;18.25;;;;;28.83;100.00;101929.47;4958092;28;45401;-67
2021/07/21 08:56:16;;;;;;;;;21.75;17.25;;;;;29.01;100.00;101937.22;4958325;28;45377;-66
2021/07/21 08:58:45;;;;;;;;;19.00;14.75;;;;;29.13;100.00;101939.00;4958072;28;46280;-67
2021/07/21 09:01:11;;;;;;;;;22.25;19.00;;;;;29.23;100.00;101931.97;4957932;28;45452;-66
2021/07/21 09:03:37;;;;;;;;;21.75;19.50;;;;;29.34;100.00;101929.34;4957822;28;45325;-66
2021/07/21 09:06:02;;;;;;;;;24.25;23.50;;;;;29.56;100.00;101926.78;4957885;28;45329;-66
2021/07/21 09:08:30;;;;;;;;;27.00;21.50;;;;;29.70;100.00;101924.88;4956793;28;47017;-66
2021/07/21 09:10:56;;;;;;;;;19.50;18.50;;;;;29.88;100.00;101927.03;4957592;28;45408;-66
2021/07/21 09:13:22;;;;;;;;;23.00;20.50;;;;;30.03;100.00;101935.78;4958126;28;45420;-66
2021/07/21 09:15:48;;;;;;;;;22.75;18.75;;;;;30.10;100.00;101926.28;4958047;28;45422;-66
2021/07/21 09:21:35;;;;;;;;;17.25;15.50;;;;;30.38;100.00;101922.25;4957544;28;45566;-66
2021/07/21 09:24:01;;;;;;;;;13.25;13.25;;;;;30.67;100.00;101933.44;4957458;28;45495;-66
2021/07/21 09:26:39;;;;;;;;;14.75;13.75;;;;;30.71;100.00;101918.72;4957717;28;45360;-66
2021/07/21 09:29:05;;;;;;;;;16.75;14.00;;;;;30.97;100.00;101931.94;4957530;28;47308;-66
2021/07/21 09:31:33;;;;;;;;;14.50;13.50;;;;;31.18;100.00;101941.00;4957576;28;45546;-66
2021/07/21 09:34:20;;;;;;;;;14.25;13.00;;;;;31.42;100.00;101937.25;4957394;28;45314;-66
2021/07/21 09:36:46;;;;;;;;;14.75;14.00;;;;;31.62;100.00;101931.91;4957732;28;45459;-67
2021/07/21 09:39:12;;;;;;;;;14.50;13.75;;;;;31.84;100.00;101936.38;4957220;28;46918;-67
2021/07/21 09:41:53;;;;;;;;;17.75;17.00;;;;;32.05;99.37;101933.66;4956992;28;45440;-68
2021/07/21 09:44:50;;;;;;;;;17.00;14.75;;;;;32.18;98.82;101938.88;4957585;28;45368;-68
2021/07/21 09:47:21;;;;;;;;;16.25;13.00;;;;;32.33;97.84;101925.88;4957152;28;45318;-66
2021/07/21 09:49:48;;;;;;;;;17.25;15.75;;;;;32.57;100.00;101934.53;4957415;28;46289;-66
2021/07/21 09:52:14;;;;;;;;;15.50;13.00;;;;;32.85;98.97;101936.56;4957368;28;45379;-66
2021/07/21 09:54:39;;;;;;;;;15.75;14.00;;;;;33.24;95.02;101930.34;4939797;28;45325;-68
2021/07/21 09:57:13;;;;;;;;;18.00;13.25;;;;;33.69;95.09;101926.13;4957346;28;45318;-68
2021/07/21 09:59:39;;;;;;;;;17.50;16.00;;;;;34.08;91.24;101909.84;4957136;28;46706;-67
2021/07/21 10:02:15;;;;;;;;;15.50;13.25;;;;;34.63;89.16;101907.28;4957396;28;45589;-67
2021/07/21 10:04:41;;;;;;;;;15.75;15.25;;;;;35.32;86.35;101925.72;4956931;28;45384;-66
2021/07/21 10:09:38;;;;;;;;;15.50;14.00;;;;;36.96;82.95;101926.75;4956947;28;45478;-67
2021/07/21 10:12:14;;;;;;;;;15.75;15.50;;;;;38.08;77.57;101914.41;4957466;28;45310;-67
2021/07/21 10:14:53;;;;;;;;;14.00;14.00;;;;;39.43;75.79;101920.50;4957038;28;45339;-67
2021/07/21 10:17:18;;;;;;;;;14.25;12.75;;;;;40.58;71.32;101915.63;4957105;28;45384;-66
2021/07/21 10:19:44;;;;;;;;;14.00;13.50;;;;;41.51;66.90;101911.22;4959844;28;45324;-66
2021/07/21 10:22:09;;;;;;;;;13.25;13.00;;;;;42.15;63.21;101922.97;4960308;28;45365;-67
2021/07/21 10:24:35;;;;;;;;;13.00;12.00;;;;;42.17;60.49;101922.78;4960288;28;45396;-67
2021/07/21 10:27:02;;;;;;;;;16.50;13.50;;;;;41.55;61.76;101918.84;4960953;28;45241;-67
2021/07/21 10:29:28;;;;;;;;;16.75;14.75;;;;;40.83;63.67;101921.66;4960010;28;46734;-67
2021/07/21 10:31:54;;;;;;;;;13.25;12.25;;;;;40.19;66.18;101910.44;4960029;28;45352;-68
2021/07/21 10:34:21;;;;;;;;;12.50;11.75;;;;;39.81;66.05;101924.09;4960103;28;45410;-66
2021/07/21 10:36:48;;;;;;;;;10.75;10.00;;;;;39.68;67.30;101917.59;4960567;28;45413;-67
2021/07/21 10:39:19;;;;;;;;;16.75;14.25;;;;;39.96;67.24;101921.44;4960139;28;45493;-67
2021/07/21 10:41:48;;;;;;;;;16.00;14.25;;;;;40.76;62.74;101919.88;4960370;28;45460;-68
2021/07/21 10:44:16;;;;;;;;;16.00;14.00;;;;;41.70;61.30;101924.31;4959875;28;45509;-68
2021/07/21 10:46:50;;;;;;;;;12.75;11.50;;;;;42.80;58.33;101932.63;4959958;28;45617;-67
2021/07/21 10:49:31;;;;;;;;;12.75;11.50;;;;;43.73;55.22;101932.03;4960034;28;46665;-70
2021/07/21 11:00:30;;;;;;;;;13.00;13.00;;;;;46.13;47.60;101924.03;4959575;28;45452;-68
2021/07/21 11:03:16;;;;;;;;;12.75;12.25;;;;;46.66;45.17;101921.53;4959726;28;45445;-67
2021/07/21 11:05:43;;;;;;;;;12.25;11.25;;;;;46.92;45.52;101925.88;4959845;28;45408;-67
2021/07/21 11:08:22;;;;;;;;;14.00;11.25;;;;;47.64;46.18;101934.16;4960000;28;45500;-69
2021/07/21 11:10:50;;;;;;;;;12.75;12.00;;;;;48.10;42.69;101918.63;4959377;28;46555;-67
2021/07/21 11:13:27;;;;;;;;;12.75;12.50;;;;;48.31;42.10;101914.41;4959536;28;45197;-67
2021/07/21 11:15:53;;;;;;;;;15.00;13.00;;;;;48.52;41.44;101907.34;4959702;28;45384;-68
2021/07/21 11:18:21;;;;;;;;;12.75;11.75;;;;;49.10;41.65;101911.84;4959726;28;45527;-67
2021/07/21 11:21:08;;;;;;;;;11.75;11.75;;;;;49.78;38.46;101916.34;4959229;28;47366;-66
2021/07/21 11:23:59;;;;;;;;;11.50;10.50;;;;;50.49;36.69;101903.47;4959187;28;45544;-67
2021/07/21 11:26:34;;;;;;;;;10.75;10.00;;;;;50.75;35.08;101910.19;4959654;28;45420;-66
2021/07/21 11:29:24;;;;;;;;;11.25;11.25;;;;;50.44;35.67;101918.13;4959940;28;45355;-66
2021/07/21 11:35:48;;;;;;;;;12.50;11.75;;;;;48.21;38.47;101897.53;4959331;28;45330;-67
2021/07/21 11:38:19;;;;;;;;;13.00;12.25;;;;;47.87;38.99;101902.88;4861738;29;45463;-67
2021/07/21 11:40:45;;;;;;;;;11.25;9.25;;;;;47.42;40.93;101891.50;4861944;29;45528;-67
2021/07/21 11:43:32;;;;;;;;;13.00;12.75;;;;;46.96;41.23;101893.06;4861789;29;45506;-67
2021/07/21 11:46:06;;;;;;;;;11.50;11.50;;;;;46.81;41.16;101887.09;4861799;29;45351;-66
2021/07/21 11:52:02;;;;;;;;;13.50;11.75;;;;;46.62;40.55;101877.97;4861991;29;45471;-67
2021/07/21 11:54:31;;;;;;;;;14.00;13.25;;;;;46.85;40.15;101885.56;4861373;29;46333;-66
2021/07/21 11:56:58;;;;;;;;;12.25;11.75;;;;;47.02;39.26;101877.44;4861693;29;45596;-66
2021/07/21 11:59:32;;;;;;;;;13.00;12.00;;;;;47.11;38.81;101871.34;4861675;29;45582;-66
2021/07/21 12:02:05;;;;;;;;;20.25;18.75;;;;;46.94;38.53;101875.84;4861675;29;45388;-66
2021/07/21 12:04:31;;;;;;;;;11.75;11.75;;;;;47.26;38.26;101879.19;4861547;29;46578;-66
2021/07/21 12:06:56;;;;;;;;;12.00;11.50;;;;;47.87;36.55;101877.97;4861375;29;45424;-67
2021/07/21 12:09:29;;;;;;;;;12.00;11.25;;;;;48.12;37.31;101881.28;4861418;29;46070;-66
2021/07/21 12:11:56;;;;;;;;;13.50;12.50;;;;;48.26;37.17;101875.50;4898450;28;45376;-66
2021/07/21 12:14:23;;;;;;;;;13.50;12.25;;;;;48.24;36.59;101869.38;4958474;28;46947;-66
2021/07/21 12:16:50;;;;;;;;;13.75;13.25;;;;;48.08;36.56;101876.47;4958772;28;45567;-67
2021/07/21 12:19:15;;;;;;;;;14.50;13.75;;;;;47.90;35.15;101857.25;4958754;28;45436;-68
2021/07/21 12:21:41;;;;;;;;;10.50;10.25;;;;;47.98;35.49;101865.16;4958741;28;45411;-67
2021/07/21 12:24:07;;;;;;;;;11.25;10.50;;;;;48.36;36.93;101859.06;4958564;28;47272;-67
2021/07/21 12:26:46;;;;;;;;;11.00;10.50;;;;;49.07;36.44;101863.22;4958307;28;45315;-66
2021/07/21 12:29:12;;;;;;;;;10.75;10.50;;;;;49.91;32.93;101858.47;4958643;28;45424;-66
2021/07/21 12:31:37;;;;;;;;;10.75;10.75;;;;;50.88;31.87;101865.22;4958737;28;45353;-67
2021/07/21 12:37:26;;;;;;;;;10.75;10.75;;;;;53.39;28.29;101863.31;4958472;28;45447;-67
2021/07/21 12:39:53;;;;;;;;;12.25;11.25;;;;;54.10;26.54;101855.59;4958481;28;45577;-67